Time;durP1;ratioP1;P1;durP2;ratioP2;P2;SDS_P1;SDS_P2;PMS_P1;PMS_P2;Temp;Humidity;BMP_temperature;BMP_pressure;BME280_temperature;BME280_humidity;BME280_pressure;Samples;Min_cycle;Max_cycle;Signal;HPM_P1;HPM_P2
2023/06/19 00:01:54;;;;;;;10.70;6.70;;;22.70;69.30;;;;;;5031385;28;20041;-70
2023/06/19 00:04:20;;;;;;;9.45;6.50;;;22.70;69.10;;;;;;5031594;28;20065;-70
2023/06/19 00:06:45;;;;;;;9.15;6.80;;;22.70;68.60;;;;;;5032534;28;20494;-70
2023/06/19 00:09:11;;;;;;;6.65;5.78;;;22.70;68.20;;;;;;5031467;28;20069;-70
2023/06/19 00:11:37;;;;;;;9.25;6.47;;;22.70;68.00;;;;;;5031231;28;20087;-70
2023/06/19 00:14:02;;;;;;;6.82;6.22;;;22.70;67.50;;;;;;5031173;28;20549;-70
2023/06/19 00:16:28;;;;;;;8.98;6.50;;;22.70;67.50;;;;;;5034753;28;20037;-70
2023/06/19 00:18:55;;;;;;;9.00;6.65;;;22.70;66.90;;;;;;5035042;28;20041;-70
2023/06/19 00:21:25;;;;;;;7.13;6.20;;;22.70;67.00;;;;;;5034677;28;20116;-70
2023/06/19 00:23:51;;;;;;;10.13;6.47;;;22.70;66.40;;;;;;5034657;28;20038;-70
2023/06/19 00:26:17;;;;;;;6.88;6.18;;;22.70;66.30;;;;;;5034575;28;20041;-70
2023/06/19 00:28:45;;;;;;;9.00;6.65;;;22.70;66.20;;;;;;5034496;28;20387;-70
2023/06/19 00:31:13;;;;;;;9.00;6.25;;;22.70;66.10;;;;;;5034506;28;20041;-70
2023/06/19 00:33:39;;;;;;;11.35;6.38;;;22.70;65.90;;;;;;5034438;28;20520;-70
2023/06/19 00:36:12;;;;;;;7.90;6.10;;;22.70;65.90;;;;;;5034330;28;20557;-70
2023/06/19 00:38:38;;;;;;;7.50;5.82;;;22.80;65.60;;;;;;5034442;28;20038;-70
2023/06/19 00:41:05;;;;;;;8.45;6.03;;;22.70;65.50;;;;;;5034360;28;20037;-70
2023/06/19 00:43:31;;;;;;;8.00;5.97;;;22.70;65.20;;;;;;5034339;28;20048;-70
2023/06/19 00:45:58;;;;;;;8.73;6.47;;;22.70;65.00;;;;;;5034222;28;20046;-70
2023/06/19 00:48:25;;;;;;;7.32;5.93;;;22.80;65.00;;;;;;5034493;28;20115;-70
2023/06/19 00:50:51;;;;;;;8.25;5.88;;;22.80;64.70;;;;;;5034417;28;20045;-70
2023/06/19 00:53:19;;;;;;;7.45;6.20;;;22.80;64.70;;;;;;5034402;28;20454;-70
2023/06/19 00:55:46;;;;;;;7.53;6.40;;;22.80;64.50;;;;;;5033834;28;20486;-70
2023/06/19 00:58:12;;;;;;;8.65;6.63;;;22.80;64.20;;;;;;5034405;28;20128;-70
2023/06/19 01:00:38;;;;;;;7.28;5.93;;;22.80;64.20;;;;;;5034026;28;20124;-70
2023/06/19 01:03:04;;;;;;;7.88;5.70;;;22.80;64.10;;;;;;5033922;28;20414;-70
2023/06/19 01:05:30;;;;;;;7.30;5.72;;;22.80;64.20;;;;;;5033796;28;20052;-70
2023/06/19 01:08:37;;;;;;;7.78;5.68;;;22.80;63.70;;;;;;5033899;28;20107;-70
2023/06/19 01:11:03;;;;;;;9.23;6.15;;;22.80;63.50;;;;;;5033283;28;20080;-70
2023/06/19 01:14:05;;;;;;;8.55;5.90;;;22.80;63.70;;;;;;5033750;28;20042;-70
2023/06/19 01:16:31;;;;;;;8.43;6.45;;;22.80;63.40;;;;;;4942041;28;20054;-70
2023/06/19 01:18:58;;;;;;;8.73;6.03;;;22.80;63.70;;;;;;4941872;28;20046;-70
2023/06/19 01:21:23;;;;;;;10.13;6.18;;;22.80;63.60;;;;;;4957856;28;20049;-70
2023/06/19 01:23:49;;;;;;;6.60;5.50;;;22.80;63.70;;;;;;4958101;28;20134;-70
2023/06/19 01:26:16;;;;;;;7.47;6.15;;;22.80;63.70;;;;;;4957737;28;20065;-70
2023/06/19 01:28:43;;;;;;;7.10;5.65;;;22.80;63.50;;;;;;4957934;28;20053;-70
2023/06/19 01:31:17;;;;;;;7.60;6.07;;;22.80;63.50;;;;;;4957672;28;20058;-70
2023/06/19 01:33:45;;;;;;;9.68;5.82;;;22.80;63.40;;;;;;4958126;28;20530;-70
2023/06/19 01:36:12;;;;;;;9.75;5.97;;;22.80;63.30;;;;;;4957461;28;20078;-70
2023/06/19 01:38:39;;;;;;;6.63;5.45;;;22.80;63.20;;;;;;4957579;28;20539;-70
2023/06/19 01:41:07;;;;;;;12.98;6.47;;;22.80;63.20;;;;;;4957492;28;20053;-70
2023/06/19 01:43:33;;;;;;;10.88;6.32;;;22.80;63.20;;;;;;4957688;28;20559;-70
2023/06/19 01:46:00;;;;;;;7.85;5.75;;;22.80;63.70;;;;;;4957283;28;20499;-70
2023/06/19 01:48:27;;;;;;;6.40;5.78;;;22.80;63.60;;;;;;4957308;28;20059;-70
2023/06/19 01:50:53;;;;;;;9.27;6.25;;;22.80;63.50;;;;;;4959339;28;20539;-70
2023/06/19 01:53:19;;;;;;;10.10;6.55;;;22.80;63.70;;;;;;5033004;28;20077;-70
2023/06/19 01:55:44;;;;;;;7.10;5.65;;;22.80;63.60;;;;;;5032802;28;20048;-70
2023/06/19 01:58:10;;;;;;;6.70;6.07;;;22.80;63.50;;;;;;5032902;28;20091;-70
2023/06/19 02:00:36;;;;;;;8.63;6.00;;;22.80;63.50;;;;;;5033137;28;20037;-70
2023/06/19 02:03:03;;;;;;;7.07;6.25;;;22.80;63.50;;;;;;5032833;28;20045;-70
2023/06/19 02:05:29;;;;;;;6.75;5.65;;;22.80;63.50;;;;;;5032999;28;20531;-70
2023/06/19 02:07:55;;;;;;;7.03;5.78;;;22.80;63.50;;;;;;5032940;28;20037;-70
2023/06/19 02:10:21;;;;;;;7.03;6.20;;;22.80;63.50;;;;;;5032692;28;20421;-70
2023/06/19 02:12:46;;;;;;;7.07;5.82;;;22.80;63.80;;;;;;5032668;28;20041;-70
2023/06/19 02:15:12;;;;;;;9.45;6.28;;;22.80;64.10;;;;;;5032641;28;20044;-70
2023/06/19 02:17:37;;;;;;;8.73;5.88;;;22.80;64.10;;;;;;5032747;28;20399;-70
2023/06/19 02:20:07;;;;;;;7.03;5.88;;;22.80;64.20;;;;;;5032547;28;20037;-70
2023/06/19 02:22:33;;;;;;;8.93;6.18;;;22.80;64.30;;;;;;5016252;28;20037;-70
2023/06/19 02:24:59;;;;;;;7.45;6.28;;;22.80;64.30;;;;;;5032406;28;20056;-70
2023/06/19 02:27:24;;;;;;;8.73;6.43;;;22.80;64.50;;;;;;5032468;28;20126;-70
2023/06/19 02:29:50;;;;;;;7.22;5.90;;;22.80;64.40;;;;;;5032343;28;20199;-70
2023/06/19 02:32:15;;;;;;;8.48;6.18;;;22.80;64.40;;;;;;5032353;28;20048;-70
2023/06/19 02:34:41;;;;;;;7.95;5.85;;;22.80;64.40;;;;;;5032169;28;20052;-70
2023/06/19 02:37:08;;;;;;;7.80;5.90;;;22.80;64.60;;;;;;5032099;28;20037;-70
2023/06/19 02:39:33;;;;;;;6.97;6.18;;;22.80;64.60;;;;;;5032217;28;20041;-70
2023/06/19 02:41:59;;;;;;;7.70;6.63;;;22.80;64.70;;;;;;5032225;28;20096;-71
2023/06/19 02:44:25;;;;;;;10.65;5.90;;;22.80;64.80;;;;;;5032172;28;20042;-70
2023/06/19 02:46:51;;;;;;;6.75;6.05;;;22.70;64.80;;;;;;5032053;28;20041;-70
2023/06/19 02:49:16;;;;;;;7.38;6.05;;;22.80;65.10;;;;;;5032341;28;20041;-70
2023/06/19 02:51:42;;;;;;;8.00;6.05;;;22.70;65.10;;;;;;5032069;28;20493;-70
2023/06/19 02:54:07;;;;;;;7.43;6.25;;;22.70;65.30;;;;;;5031936;28;20037;-70
2023/06/19 02:56:33;;;;;;;10.20;6.03;;;22.70;65.60;;;;;;5031778;28;20045;-70
2023/06/19 02:58:59;;;;;;;7.45;6.05;;;22.70;65.70;;;;;;5031937;28;20033;-70
2023/06/19 03:01:24;;;;;;;7.53;6.35;;;22.70;65.90;;;;;;5031962;28;20090;-70
2023/06/19 03:03:52;;;;;;;7.15;6.32;;;22.70;66.10;;;;;;5031922;28;20138;-70
2023/06/19 03:06:17;;;;;;;6.35;5.60;;;22.70;66.50;;;;;;5032059;28;20195;-70
2023/06/19 03:08:44;;;;;;;8.75;6.05;;;22.70;66.70;;;;;;5031843;28;20518;-70
2023/06/19 03:11:11;;;;;;;8.13;6.20;;;22.70;66.70;;;;;;5031841;28;20072;-70
2023/06/19 03:13:51;;;;;;;9.00;6.72;;;22.70;66.90;;;;;;5031825;28;20045;-70
2023/06/19 03:16:17;;;;;;;8.90;5.78;;;22.70;67.30;;;;;;5031716;28;20041;-70
2023/06/19 03:18:46;;;;;;;8.63;5.97;;;22.60;67.80;;;;;;5031987;28;20073;-70
2023/06/19 03:21:15;;;;;;;10.45;6.07;;;22.60;68.20;;;;;;5031726;28;20115;-70
2023/06/19 03:23:41;;;;;;;8.70;5.80;;;22.60;68.60;;;;;;5015282;28;20029;-70
2023/06/19 03:26:08;;;;;;;8.25;5.88;;;22.50;69.50;;;;;;5031822;28;20047;-70
2023/06/19 03:28:34;;;;;;;7.03;5.25;;;22.50;69.30;;;;;;5031673;28;20049;-70
2023/06/19 03:31:00;;;;;;;10.18;5.43;;;22.50;69.60;;;;;;5031942;28;20029;-70
2023/06/19 03:33:26;;;;;;;6.55;4.68;;;22.50;70.20;;;;;;5031620;28;20037;-70
2023/06/19 03:35:51;;;;;;;7.00;4.82;;;22.40;70.40;;;;;;5031465;28;20083;-70
2023/06/19 03:38:17;;;;;;;7.95;5.07;;;22.40;70.80;;;;;;5015437;28;20034;-70
2023/06/19 03:40:42;;;;;;;6.88;4.38;;;22.40;71.00;;;;;;5031572;28;20490;-70
2023/06/19 03:43:08;;;;;;;9.27;4.10;;;22.30;71.50;;;;;;5031786;28;20037;-70
2023/06/19 03:45:34;;;;;;;10.50;4.50;;;22.20;72.00;;;;;;5031405;28;20037;-70
2023/06/19 03:47:59;;;;;;;5.72;3.78;;;22.20;72.40;;;;;;5031496;28;20214;-70
2023/06/19 03:50:25;;;;;;;8.55;3.80;;;22.10;72.80;;;;;;5033715;28;20045;-70
2023/06/19 03:52:50;;;;;;;8.38;4.00;;;22.10;73.40;;;;;;5035295;28;20041;-70
2023/06/19 03:55:16;;;;;;;4.68;3.80;;;22.00;73.90;;;;;;5035018;28;20052;-70
2023/06/19 03:57:42;;;;;;;5.30;3.53;;;22.00;74.30;;;;;;5018738;28;20045;-70
2023/06/19 04:00:10;;;;;;;6.07;3.58;;;21.90;74.70;;;;;;5035161;28;20120;-70
2023/06/19 04:02:36;;;;;;;8.70;3.60;;;21.90;75.20;;;;;;5035128;28;20497;-70
2023/06/19 04:05:02;;;;;;;4.10;3.20;;;21.80;75.60;;;;;;5035300;28;20037;-70
2023/06/19 04:07:28;;;;;;;4.95;3.63;;;21.70;76.00;;;;;;5018788;28;20406;-70
2023/06/19 04:09:54;;;;;;;6.60;3.47;;;21.70;76.40;;;;;;5034980;28;20490;-70
2023/06/19 04:12:20;;;;;;;5.93;3.53;;;21.70;76.70;;;;;;5035199;28;20053;-70
2023/06/19 04:14:45;;;;;;;6.43;3.60;;;21.70;77.10;;;;;;5034949;28;20091;-70
2023/06/19 04:17:11;;;;;;;4.20;3.58;;;21.60;77.40;;;;;;5034854;28;20029;-70
2023/06/19 04:19:37;;;;;;;5.93;3.83;;;21.60;77.60;;;;;;5035078;28;20030;-70
2023/06/19 04:22:02;;;;;;;4.93;3.58;;;21.60;78.00;;;;;;5034790;28;20501;-70
2023/06/19 04:24:28;;;;;;;7.43;3.78;;;21.50;78.30;;;;;;5034718;28;20049;-70
2023/06/19 04:26:54;;;;;;;4.55;3.53;;;21.50;78.60;;;;;;5034615;28;20038;-70
2023/06/19 04:29:19;;;;;;;6.25;3.58;;;21.50;78.90;;;;;;5034633;28;20040;-70
2023/06/19 04:31:48;;;;;;;6.80;3.55;;;21.50;79.20;;;;;;5034601;28;20038;-70
2023/06/19 04:34:16;;;;;;;5.50;3.40;;;21.40;79.70;;;;;;5034505;28;20038;-70
2023/06/19 04:36:42;;;;;;;8.35;3.55;;;21.40;80.00;;;;;;5034409;28;20034;-70
2023/06/19 04:39:09;;;;;;;6.35;3.78;;;21.40;80.30;;;;;;5034709;28;20041;-70
2023/06/19 04:41:38;;;;;;;3.83;3.30;;;21.40;80.60;;;;;;5034648;28;20053;-70
2023/06/19 04:44:08;;;;;;;6.13;3.28;;;21.40;80.80;;;;;;5034343;28;20049;-70
2023/06/19 04:46:34;;;;;;;9.48;3.70;;;21.40;81.20;;;;;;5034226;28;20076;-70
2023/06/19 04:48:59;;;;;;;7.30;3.30;;;21.40;81.60;;;;;;5034259;28;20139;-70
2023/06/19 04:51:26;;;;;;;4.95;3.28;;;21.40;82.00;;;;;;5034222;28;20116;-70
2023/06/19 04:53:52;;;;;;;4.85;3.17;;;21.30;82.50;;;;;;5034179;28;20041;-70
2023/06/19 04:56:18;;;;;;;8.60;3.30;;;21.30;83.10;;;;;;5033859;28;20073;-70
2023/06/19 04:58:47;;;;;;;4.03;3.05;;;21.30;83.60;;;;;;5017592;28;20076;-70
2023/06/19 05:01:13;;;;;;;6.07;3.45;;;21.30;84.00;;;;;;5033885;28;20037;-70
2023/06/19 05:03:40;;;;;;;5.57;3.55;;;21.30;84.50;;;;;;5033995;28;20044;-70
2023/06/19 05:06:05;;;;;;;5.50;3.58;;;21.30;84.70;;;;;;5017332;28;20513;-70
2023/06/19 05:08:31;;;;;;;4.05;3.15;;;21.30;85.00;;;;;;5034183;28;20130;-70
2023/06/19 05:10:57;;;;;;;5.30;3.15;;;21.30;85.20;;;;;;5033869;28;20521;-70
2023/06/19 05:13:24;;;;;;;5.53;3.65;;;21.30;85.60;;;;;;5033851;28;20084;-70
2023/06/19 05:15:50;;;;;;;6.22;3.15;;;21.30;85.90;;;;;;5033611;28;20046;-70
2023/06/19 05:18:16;;;;;;;4.55;3.13;;;21.30;86.40;;;;;;5033746;28;20033;-69
2023/06/19 05:20:42;;;;;;;4.93;3.40;;;21.30;87.10;;;;;;5033650;28;20402;-68
2023/06/19 05:23:07;;;;;;;4.97;3.45;;;21.40;87.50;;;;;;5033912;28;20042;-68
2023/06/19 05:25:33;;;;;;;4.68;3.15;;;21.40;87.90;;;;;;5033762;28;20490;-69
2023/06/19 05:27:59;;;;;;;11.70;3.90;;;21.40;88.20;;;;;;5033529;28;20061;-68
2023/06/19 05:30:24;;;;;;;4.95;3.42;;;21.50;88.90;;;;;;5033496;28;20046;-68
2023/06/19 05:32:50;;;;;;;6.20;3.55;;;21.50;89.60;;;;;;5033434;28;20041;-68
2023/06/19 05:35:15;;;;;;;5.60;4.03;;;21.50;89.70;;;;;;5033261;28;20045;-68
2023/06/19 05:37:43;;;;;;;6.00;3.22;;;21.50;90.00;;;;;;5017115;28;20076;-68
2023/06/19 05:40:12;;;;;;;5.32;4.05;;;21.50;90.20;;;;;;5033317;28;20037;-68
2023/06/19 05:42:38;;;;;;;6.60;3.70;;;21.50;90.50;;;;;;5033274;28;20095;-68
2023/06/19 05:45:04;;;;;;;5.40;3.60;;;21.40;90.80;;;;;;5033354;28;20128;-68
2023/06/19 05:47:30;;;;;;;5.80;3.70;;;21.50;91.10;;;;;;5033169;28;20077;-68
2023/06/19 05:49:59;;;;;;;4.97;3.90;;;21.50;91.50;;;;;;5033143;28;20084;-68
2023/06/19 05:52:25;;;;;;;6.47;3.83;;;21.50;91.80;;;;;;5033076;28;20041;-68
2023/06/19 05:54:53;;;;;;;5.68;3.95;;;21.50;91.80;;;;;;5032691;28;20116;-68
2023/06/19 05:57:20;;;;;;;4.82;3.90;;;21.50;92.30;;;;;;5032995;28;20037;-68
2023/06/19 05:59:50;;;;;;;4.72;4.22;;;21.50;92.50;;;;;;5032894;28;20097;-68
2023/06/19 06:02:17;;;;;;;7.88;3.90;;;21.60;92.70;;;;;;5033960;28;20068;-68
2023/06/19 06:04:43;;;;;;;5.07;3.90;;;21.70;92.90;;;;;;5032739;28;20045;-68
2023/06/19 06:07:08;;;;;;;4.35;2.97;;;21.70;93.10;;;;;;5032823;28;20133;-68
2023/06/19 06:09:34;;;;;;;4.82;3.60;;;21.70;93.40;;;;;;5032751;28;20041;-68
2023/06/19 06:12:00;;;;;;;4.68;3.40;;;21.70;93.60;;;;;;5032310;28;20204;-68
2023/06/19 06:14:26;;;;;;;3.65;3.20;;;21.60;93.80;;;;;;5032870;28;20398;-68
2023/06/19 06:16:52;;;;;;;5.78;3.55;;;21.70;94.10;;;;;;5032848;28;20049;-68
2023/06/19 06:19:20;;;;;;;4.70;3.38;;;21.70;94.30;;;;;;5033869;28;20044;-68
2023/06/19 06:21:46;;;;;;;5.22;3.38;;;21.70;94.60;;;;;;5032556;28;20045;-68
2023/06/19 06:24:11;;;;;;;5.22;3.85;;;21.60;94.80;;;;;;5032671;28;20090;-68
2023/06/19 06:26:37;;;;;;;6.30;3.90;;;21.60;95.40;;;;;;5032445;28;20045;-68
2023/06/19 06:29:03;;;;;;;5.82;4.35;;;21.60;95.90;;;;;;5032668;28;20131;-68
2023/06/19 06:31:28;;;;;;;6.55;4.45;;;21.50;96.40;;;;;;5032356;28;20056;-68
2023/06/19 06:33:54;;;;;;;6.22;5.55;;;21.50;97.20;;;;;;5032311;28;20038;-69
2023/06/19 06:36:19;;;;;;;8.75;6.50;;;21.40;98.30;;;;;;5033930;28;20048;-68
2023/06/19 06:38:45;;;;;;;7.95;6.25;;;21.30;99.10;;;;;;5032252;28;20114;-68
2023/06/19 06:41:11;;;;;;;12.02;6.88;;;21.30;99.70;;;;;;5032407;28;20056;-68
2023/06/19 06:43:38;;;;;;;11.10;7.88;;;21.30;99.90;;;;;;5032189;28;20508;-68
2023/06/19 06:46:04;;;;;;;11.57;8.68;;;21.30;99.90;;;;;;5032297;28;20103;-68
2023/06/19 06:48:30;;;;;;;9.40;8.38;;;21.30;99.90;;;;;;5032124;28;20410;-68
2023/06/19 06:51:01;;;;;;;10.27;8.88;;;21.30;99.90;;;;;;5032046;28;20564;-68
2023/06/19 06:53:28;;;;;;;11.68;10.55;;;21.30;99.90;;;;;;5032090;28;20045;-68
2023/06/19 06:55:54;;;;;;;12.52;11.18;;;21.30;99.90;;;;;;5031775;28;20041;-68
2023/06/19 06:58:19;;;;;;;15.10;11.73;;;21.20;99.90;;;;;;5032251;28;20057;-68
2023/06/19 07:00:45;;;;;;;14.50;11.02;;;21.20;99.90;;;;;;5031841;28;20042;-68
2023/06/19 07:03:11;;;;;;;12.52;11.05;;;21.20;99.90;;;;;;5033201;28;20044;-68
2023/06/19 07:05:36;;;;;;;13.80;12.07;;;21.20;99.90;;;;;;5033102;28;20041;-68
2023/06/19 07:08:03;;;;;;;14.68;10.40;;;21.20;99.90;;;;;;5031885;28;20124;-68
2023/06/19 07:10:29;;;;;;;13.82;10.90;;;21.20;99.90;;;;;;5031888;28;20045;-68
2023/06/19 07:12:55;;;;;;;11.70;9.95;;;21.20;99.90;;;;;;5033291;28;20056;-68
2023/06/19 07:15:21;;;;;;;11.55;9.15;;;21.20;99.90;;;;;;5033283;28;20041;-68
2023/06/19 07:17:46;;;;;;;9.68;8.05;;;21.20;99.90;;;;;;5032052;28;20042;-68
2023/06/19 07:20:12;;;;;;;8.85;7.43;;;21.30;99.90;;;;;;5031770;28;20073;-68
2023/06/19 07:22:38;;;;;;;10.07;7.65;;;21.20;99.90;;;;;;5031654;28;20039;-68
2023/06/19 07:25:05;;;;;;;9.20;6.65;;;21.30;99.90;;;;;;5035127;28;20509;-68
2023/06/19 07:27:30;;;;;;;7.53;6.25;;;21.30;99.90;;;;;;5036043;28;20056;-68
2023/06/19 07:29:56;;;;;;;7.13;6.15;;;21.30;99.90;;;;;;5035724;28;20049;-68
2023/06/19 07:32:22;;;;;;;6.20;5.60;;;21.30;99.90;;;;;;5035736;28;20049;-68
2023/06/19 07:34:48;;;;;;;6.32;5.10;;;21.20;99.90;;;;;;5035526;28;20068;-72
2023/06/19 07:37:19;;;;;;;7.75;5.28;;;21.20;99.90;;;;;;5035883;28;20041;-72
2023/06/19 07:39:49;;;;;;;7.88;4.45;;;21.20;99.90;;;;;;5019069;28;20406;-72
2023/06/19 07:42:16;;;;;;;9.05;5.10;;;21.20;99.90;;;;;;5035479;28;20041;-72
2023/06/19 07:44:42;;;;;;;8.18;5.18;;;21.10;99.90;;;;;;5035341;28;20502;-72
2023/06/19 07:47:08;;;;;;;9.05;4.85;;;21.10;99.90;;;;;;5018933;28;20044;-72
2023/06/19 07:49:35;;;;;;;5.38;4.28;;;21.20;99.90;;;;;;5035557;28;20413;-73
2023/06/19 07:52:00;;;;;;;5.95;4.28;;;21.20;99.90;;;;;;5035353;28;20160;-72
2023/06/19 07:54:26;;;;;;;6.05;4.18;;;21.20;99.90;;;;;;5035134;28;20152;-73
2023/06/19 07:56:52;;;;;;;4.90;3.75;;;21.20;99.90;;;;;;5035207;28;20037;-72
2023/06/19 07:59:18;;;;;;;5.22;3.38;;;21.20;99.90;;;;;;5035453;28;20052;-73
2023/06/19 08:01:44;;;;;;;6.65;3.58;;;21.20;99.90;;;;;;5035431;28;20489;-73
2023/06/19 08:04:10;;;;;;;3.03;2.72;;;21.20;99.90;;;;;;5035348;28;20048;-73
2023/06/19 08:06:36;;;;;;;6.38;3.53;;;21.30;99.90;;;;;;5035036;28;20053;-73
2023/06/19 08:09:02;;;;;;;3.78;2.97;;;21.30;99.90;;;;;;5035030;28;20037;-73
2023/06/19 08:11:28;;;;;;;6.00;2.58;;;21.30;99.90;;;;;;5035242;28;20112;-73
2023/06/19 08:13:53;;;;;;;3.45;2.67;;;21.40;99.90;;;;;;5018741;28;20508;-73
2023/06/19 08:16:19;;;;;;;5.07;2.88;;;21.30;99.90;;;;;;5034743;28;20127;-73
2023/06/19 08:18:45;;;;;;;4.85;3.50;;;21.40;99.90;;;;;;5034899;28;20037;-73
2023/06/19 08:21:11;;;;;;;4.65;3.60;;;21.40;99.90;;;;;;5034791;28;20482;-73
2023/06/19 08:23:40;;;;;;;5.15;3.20;;;21.40;99.90;;;;;;5034775;28;20542;-72
2023/06/19 08:26:07;;;;;;;5.45;3.17;;;21.40;99.90;;;;;;5034639;28;20041;-73
2023/06/19 08:28:33;;;;;;;6.68;3.22;;;21.40;99.90;;;;;;5034671;28;20501;-73
2023/06/19 08:30:59;;;;;;;3.45;3.10;;;21.40;99.80;;;;;;5018139;28;20099;-73
2023/06/19 08:33:24;;;;;;;5.82;3.08;;;21.40;99.40;;;;;;5034614;28;20123;-72
2023/06/19 08:35:50;;;;;;;3.35;2.88;;;21.40;99.00;;;;;;5033626;28;20091;-72
2023/06/19 08:38:15;;;;;;;5.38;3.30;;;21.30;98.60;;;;;;5034533;28;20041;-73
2023/06/19 08:40:43;;;;;;;4.40;3.03;;;21.30;98.60;;;;;;5035506;28;20049;-72
2023/06/19 08:43:08;;;;;;;5.82;3.50;;;21.30;98.50;;;;;;5034413;28;20040;-73
2023/06/19 08:45:34;;;;;;;4.32;3.13;;;21.30;98.30;;;;;;5034481;28;20041;-72
2023/06/19 08:48:03;;;;;;;5.57;3.92;;;21.30;98.20;;;;;;5034640;28;20033;-72
2023/06/19 08:50:30;;;;;;;6.88;3.10;;;21.20;98.30;;;;;;5034437;28;20061;-73
2023/06/19 08:52:56;;;;;;;7.30;3.60;;;21.20;98.30;;;;;;5034146;28;20045;-73
2023/06/19 08:55:21;;;;;;;4.78;3.95;;;21.20;98.20;;;;;;5033859;28;20180;-73
2023/06/19 08:57:49;;;;;;;5.05;3.78;;;21.20;98.10;;;;;;5034112;28;20071;-73
2023/06/19 09:00:27;;;;;;;5.07;3.90;;;21.30;98.10;;;;;;5017854;28;20033;-73
2023/06/19 09:03:00;;;;;;;8.02;3.83;;;21.30;97.90;;;;;;5034070;28;20071;-73
2023/06/19 09:05:25;;;;;;;5.65;3.88;;;21.40;98.20;;;;;;5033989;28;20041;-73
2023/06/19 09:08:02;;;;;;;6.25;3.97;;;21.50;98.20;;;;;;5033964;28;20046;-73
2023/06/19 09:10:28;;;;;;;6.20;4.32;;;21.60;98.10;;;;;;5017225;28;20413;-73
2023/06/19 09:13:02;;;;;;;6.85;4.72;;;21.70;97.60;;;;;;5034090;28;20132;-73
2023/06/19 09:15:32;;;;;;;7.78;4.75;;;21.80;97.20;;;;;;5033559;28;20521;-73
2023/06/19 09:18:10;;;;;;;5.38;4.88;;;22.00;97.10;;;;;;5033792;28;20086;-73
2023/06/19 09:20:43;;;;;;;7.00;5.07;;;22.10;96.90;;;;;;5033663;28;20048;-72
2023/06/19 09:23:13;;;;;;;7.70;5.00;;;22.10;96.40;;;;;;5033708;28;20045;-72
2023/06/19 09:25:50;;;;;;;9.65;5.60;;;22.10;96.10;;;;;;5033819;28;20068;-72
2023/06/19 09:28:28;;;;;;;10.55;6.25;;;22.10;96.00;;;;;;5033585;28;20045;-72
2023/06/19 09:31:02;;;;;;;9.43;6.75;;;22.10;96.10;;;;;;5033485;28;20045;-72
2023/06/19 09:33:33;;;;;;;9.32;7.97;;;22.00;96.10;;;;;;5033699;28;20465;-72
2023/06/19 09:36:01;;;;;;;10.27;8.23;;;22.00;96.00;;;;;;5033401;28;20038;-72
2023/06/19 09:38:32;;;;;;;11.48;9.10;;;21.90;96.10;;;;;;5033323;28;20041;-72
2023/06/19 09:41:03;;;;;;;12.63;9.57;;;21.90;96.20;;;;;;5033337;28;20049;-72
2023/06/19 09:43:42;;;;;;;11.63;10.38;;;21.90;96.20;;;;;;5033261;28;20386;-72
2023/06/19 09:46:09;;;;;;;10.77;9.68;;;21.90;95.70;;;;;;5033339;28;20506;-72
2023/06/19 09:48:40;;;;;;;9.75;8.38;;;21.90;95.50;;;;;;5015684;28;20128;-72
2023/06/19 09:51:25;;;;;;;11.25;8.05;;;22.00;95.10;;;;;;5033380;28;20486;-72
2023/06/19 09:53:51;;;;;;;10.07;8.00;;;22.10;94.40;;;;;;5033100;28;20045;-72
2023/06/19 09:56:21;;;;;;;10.48;8.43;;;22.20;94.10;;;;;;5032830;28;20056;-72
2023/06/19 09:58:49;;;;;;;10.13;8.45;;;22.30;93.60;;;;;;5033014;28;20049;-72
2023/06/19 10:01:19;;;;;;;9.32;8.30;;;22.30;93.50;;;;;;5032952;28;20037;-72
2023/06/19 10:03:45;;;;;;;11.13;7.82;;;22.30;93.30;;;;;;5032881;28;20038;-72
2023/06/19 10:06:16;;;;;;;9.88;8.13;;;22.30;93.00;;;;;;5016169;28;20034;-72
2023/06/19 10:08:43;;;;;;;10.10;7.63;;;22.40;92.80;;;;;;5032975;28;20041;-72
2023/06/19 10:11:10;;;;;;;13.75;8.75;;;22.30;92.70;;;;;;5032743;28;20087;-72
2023/06/19 10:13:42;;;;;;;11.45;8.55;;;22.30;92.50;;;;;;5032659;28;20410;-72
2023/06/19 10:16:22;;;;;;;9.43;8.25;;;22.20;92.40;;;;;;5032531;28;20037;-72
2023/06/19 10:18:49;;;;;;;9.48;7.78;;;22.20;92.40;;;;;;5032614;28;20038;-72
2023/06/19 10:21:19;;;;;;;12.43;7.82;;;22.10;92.70;;;;;;5032591;28;20033;-73
2023/06/19 10:23:54;;;;;;;12.43;8.35;;;22.10;92.50;;;;;;5032491;28;20037;-74
2023/06/19 10:26:21;;;;;;;10.60;9.10;;;22.10;92.10;;;;;;5032446;28;20091;-74
2023/06/19 10:28:50;;;;;;;10.93;8.95;;;22.10;92.40;;;;;;5032724;28;20081;-74
2023/06/19 10:31:18;;;;;;;10.40;9.00;;;22.00;92.50;;;;;;5032587;28;20045;-74
2023/06/19 10:33:43;;;;;;;11.70;8.80;;;22.10;92.40;;;;;;5015875;28;20091;-74
2023/06/19 10:36:16;;;;;;;9.48;7.32;;;22.30;92.10;;;;;;5032278;28;20034;-74
2023/06/19 10:38:47;;;;;;;10.35;7.90;;;22.70;91.80;;;;;;5032314;28;20041;-74
2023/06/19 10:41:25;;;;;;;7.22;5.90;;;22.90;91.40;;;;;;5032234;28;20121;-74
2023/06/19 10:43:56;;;;;;;9.32;6.78;;;23.00;90.60;;;;;;5015797;28;20042;-74
2023/06/19 10:46:23;;;;;;;8.05;6.20;;;23.10;90.50;;;;;;5032361;28;20064;-73
2023/06/19 10:48:50;;;;;;;8.38;6.82;;;23.10;90.40;;;;;;5015660;28;20042;-73
2023/06/19 10:51:19;;;;;;;8.32;7.07;;;23.10;90.40;;;;;;5032324;28;20042;-70
2023/06/19 10:53:45;;;;;;;8.13;6.60;;;23.10;90.00;;;;;;5033573;28;20039;-70
2023/06/19 10:56:10;;;;;;;7.68;6.75;;;23.10;89.90;;;;;;5032253;28;20042;-70
2023/06/19 10:58:36;;;;;;;9.02;7.53;;;23.10;89.90;;;;;;5032041;28;20096;-70
2023/06/19 11:01:02;;;;;;;8.90;7.82;;;23.10;90.00;;;;;;5032253;28;20037;-70
2023/06/19 11:03:28;;;;;;;8.98;6.75;;;23.10;90.00;;;;;;5032288;28;20041;-70
2023/06/19 11:05:54;;;;;;;12.52;8.35;;;23.20;90.00;;;;;;5015642;28;20049;-70
2023/06/19 11:08:21;;;;;;;11.90;7.75;;;23.30;89.50;;;;;;5032005;28;20041;-70
2023/06/19 11:10:47;;;;;;;7.93;7.10;;;23.40;89.30;;;;;;5015553;28;20414;-70
2023/06/19 11:13:18;;;;;;;11.55;7.75;;;23.50;89.20;;;;;;5032201;28;20040;-71
2023/06/19 11:15:45;;;;;;;11.88;8.82;;;23.50;87.70;;;;;;5031960;28;20064;-70
2023/06/19 11:18:11;;;;;;;9.02;8.13;;;23.50;88.10;;;;;;5032120;28;20410;-70
2023/06/19 11:20:51;;;;;;;9.38;8.00;;;23.40;88.10;;;;;;5032413;28;20195;-70
2023/06/19 11:23:34;;;;;;;9.68;7.38;;;23.60;88.90;;;;;;5016233;28;20042;-70
2023/06/19 11:26:04;;;;;;;8.40;6.60;;;23.80;87.20;;;;;;5033073;28;20494;-70
2023/06/19 11:28:29;;;;;;;9.82;6.22;;;24.00;86.80;;;;;;5015980;28;20077;-70
2023/06/19 11:31:01;;;;;;;9.88;6.47;;;23.80;85.10;;;;;;5032553;28;20081;-70
2023/06/19 11:33:26;;;;;;;8.98;6.10;;;23.90;84.40;;;;;;5032378;28;20049;-71
2023/06/19 11:35:54;;;;;;;7.05;5.40;;;24.10;84.70;;;;;;5031506;28;20413;-71
2023/06/19 11:38:22;;;;;;;8.73;5.88;;;24.40;83.20;;;;;;5031595;28;20084;-71
2023/06/19 11:40:48;;;;;;;9.23;5.72;;;24.40;80.90;;;;;;5031563;28;20057;-71
2023/06/19 11:43:43;;;;;;;7.72;5.78;;;24.30;80.80;;;;;;5015357;28;20041;-71
2023/06/19 11:46:09;;;;;;;7.65;6.25;;;24.50;80.40;;;;;;5014994;28;20053;-71
2023/06/19 11:48:38;;;;;;;8.27;7.22;;;24.70;81.20;;;;;;5031525;28;20070;-71
2023/06/19 11:51:03;;;;;;;8.15;6.80;;;24.80;81.00;;;;;;5031735;28;20049;-71
2023/06/19 11:53:29;;;;;;;11.13;7.90;;;24.90;81.20;;;;;;5031484;28;20409;-71
2023/06/19 11:55:56;;;;;;;9.35;7.63;;;25.10;80.20;;;;;;5032447;28;20046;-71
2023/06/19 11:58:21;;;;;;;9.38;7.75;;;25.10;79.70;;;;;;5031358;28;20576;-71
2023/06/19 12:00:48;;;;;;;9.30;7.78;;;25.20;79.00;;;;;;5032686;28;20033;-72
2023/06/19 12:03:14;;;;;;;9.77;8.32;;;25.30;78.30;;;;;;5031382;28;20504;-71
2023/06/19 12:05:40;;;;;;;11.98;8.55;;;25.20;77.30;;;;;;5031545;28;20045;-71
2023/06/19 12:08:06;;;;;;;14.68;7.68;;;25.20;77.10;;;;;;5032570;28;20042;-71
2023/06/19 12:10:33;;;;;;;10.90;8.27;;;25.10;77.90;;;;;;5032078;28;20060;-71
2023/06/19 12:12:59;;;;;;;11.40;7.88;;;25.20;77.90;;;;;;5035007;28;20048;-71
2023/06/19 12:15:25;;;;;;;12.85;7.93;;;25.30;77.50;;;;;;5034778;28;20041;-71
2023/06/19 12:17:51;;;;;;;12.20;7.97;;;25.50;76.70;;;;;;5035132;28;20041;-71
2023/06/19 12:20:17;;;;;;;11.35;7.90;;;25.50;76.80;;;;;;5035331;28;20516;-71
2023/06/19 12:22:43;;;;;;;11.25;9.00;;;25.40;76.40;;;;;;5034784;28;20038;-71
2023/06/19 12:25:09;;;;;;;11.73;8.00;;;25.20;76.60;;;;;;5034954;28;20068;-71
2023/06/19 12:27:34;;;;;;;15.18;8.32;;;25.10;77.40;;;;;;5034779;28;20132;-71
2023/06/19 12:30:00;;;;;;;11.73;8.02;;;25.00;76.80;;;;;;5034917;28;20076;-71
2023/06/19 12:32:26;;;;;;;13.73;8.57;;;25.00;76.60;;;;;;5034630;28;20510;-71
2023/06/19 12:34:53;;;;;;;10.43;7.97;;;24.80;76.40;;;;;;5034702;28;20099;-71
2023/06/19 12:37:20;;;;;;;9.48;7.78;;;24.80;76.90;;;;;;5034578;28;20041;-71
2023/06/19 12:39:47;;;;;;;11.30;7.13;;;24.90;76.90;;;;;;5034502;28;20061;-71
2023/06/19 12:42:13;;;;;;;11.23;7.15;;;25.20;76.40;;;;;;5034470;28;20045;-71
2023/06/19 12:44:39;;;;;;;11.30;7.40;;;25.50;76.20;;;;;;5034343;28;20042;-71